Terminal Aerodrome Forecast
Issued by NWS

Current Version | Previous Version | Text Only | Print | Product List | Glossary Off
Versions: 1 2 3 4 5 6 7 8 9 10 11 12 13 14 15 16 17 18 19 20 21 22 23

000
FTUS41 KRLX 271100
TAFCKB
TAF
KCKB 271132Z 2712/2812 00000KT 2SM BR FEW001
     FM271300 00000KT P6SM FEW250
     FM272100 07005KT P6SM FEW050
     FM272200 07004KT P6SM SCT200
     FM280800 00000KT 6SM BR SCT250
     FM281000 00000KT 4SM BR SCT200=

USA.gov is the U.S. government's official web portal to all federal, state and local government web resources and services.